Time;durP1;ratioP1;P1;durP2;ratioP2;P2;SDS_P1;SDS_P2;PMS_P1;PMS_P2;Temp;Humidity;BMP_temperature;BMP_pressure;BME280_temperature;BME280_humidity;BME280_pressure;Samples;Min_cycle;Max_cycle;Signal;HPM_P1;HPM_P2
2021/05/17 00:01:18;;;;;;;1999.90;999.90;;;9.30;99.90;;;;;;5070335;28;20190;-74
2021/05/17 00:03:48;;;;;;;1999.90;999.90;;;9.40;99.90;;;;;;5071055;28;20696;-74
2021/05/17 00:06:14;;;;;;;1999.90;999.90;;;9.20;99.90;;;;;;5070495;28;20184;-74
2021/05/17 00:08:40;;;;;;;1999.90;999.90;;;9.20;99.90;;;;;;5052509;28;20281;-74
2021/05/17 00:11:06;;;;;;;1999.90;999.90;;;9.20;99.90;;;;;;5052213;28;20272;-74
2021/05/17 00:13:31;;;;;;;1999.90;999.90;;;9.20;99.90;;;;;;5070315;28;20576;-74
2021/05/17 00:15:57;;;;;;;1999.90;999.90;;;9.10;99.90;;;;;;5070313;28;20188;-74
2021/05/17 00:18:23;;;;;;;1999.90;999.90;;;9.10;99.90;;;;;;5070129;28;20223;-75
2021/05/17 00:20:49;;;;;;;1999.90;999.90;;;9.00;99.90;;;;;;5070190;28;20264;-74
2021/05/17 00:23:15;;;;;;;1999.90;999.90;;;9.00;99.90;;;;;;5068773;28;20236;-74
2021/05/17 00:25:41;;;;;;;1999.90;999.90;;;8.90;99.90;;;;;;5067351;28;20228;-74
2021/05/17 00:28:07;;;;;;;1999.90;999.90;;;8.80;99.90;;;;;;5051884;28;20224;-74
2021/05/17 00:30:33;;;;;;;1999.90;999.90;;;8.80;99.90;;;;;;5070037;28;20241;-74
2021/05/17 00:33:01;;;;;;;1999.90;999.90;;;8.80;99.90;;;;;;5070714;28;20204;-74
2021/05/17 00:35:27;;;;;;;1999.90;999.90;;;8.70;99.90;;;;;;5069974;28;20172;-74
2021/05/17 00:37:53;;;;;;;1999.90;999.90;;;8.70;99.90;;;;;;5052009;28;20211;-74
2021/05/17 00:40:20;;;;;;;1999.90;999.90;;;8.70;99.90;;;;;;5070248;28;20179;-74
2021/05/17 00:42:46;;;;;;;1999.90;999.90;;;8.80;99.90;;;;;;5051855;28;20181;-74
2021/05/17 00:45:15;;;;;;;1999.90;999.90;;;8.80;99.90;;;;;;5070033;28;20177;-74
2021/05/17 00:47:43;;;;;;;1999.90;999.90;;;8.70;99.90;;;;;;5069912;28;20193;-73
2021/05/17 00:50:11;;;;;;;1999.90;999.90;;;8.70;99.90;;;;;;5069915;28;20174;-74
2021/05/17 00:52:38;;;;;;;1999.90;999.90;;;8.70;99.90;;;;;;5069813;28;20570;-74
2021/05/17 00:55:05;;;;;;;1999.90;999.90;;;8.60;99.90;;;;;;5069903;28;20223;-74
2021/05/17 00:57:31;;;;;;;1999.90;999.90;;;8.60;99.90;;;;;;5051881;28;20181;-74
2021/05/17 00:59:57;;;;;;;1999.90;999.90;;;8.60;99.90;;;;;;5069848;28;20193;-74
2021/05/17 01:02:23;;;;;;;1999.90;999.90;;;8.70;99.90;;;;;;5069843;28;20191;-74
2021/05/17 01:04:49;;;;;;;1999.90;999.90;;;8.80;99.90;;;;;;5072204;28;20292;-74
2021/05/17 01:07:19;;;;;;;1999.90;999.90;;;8.80;99.90;;;;;;5074281;28;20723;-74
2021/05/17 01:09:46;;;;;;;1999.90;999.90;;;8.80;99.90;;;;;;5074854;28;20205;-74
2021/05/17 01:12:15;;;;;;;1999.90;999.90;;;8.80;99.90;;;;;;5039447;28;20213;-74
2021/05/17 01:14:41;;;;;;;1999.90;999.90;;;8.90;99.90;;;;;;5073400;28;20188;-74
2021/05/17 01:17:09;;;;;;;1999.90;999.90;;;8.90;99.90;;;;;;5073254;28;20182;-74
2021/05/17 01:19:43;;;;;;;1999.90;999.90;;;8.70;99.90;;;;;;5073263;28;20234;-74
2021/05/17 01:22:11;;;;;;;1999.90;999.90;;;8.60;99.90;;;;;;5072959;28;20207;-74
2021/05/17 01:24:40;;;;;;;1999.90;999.90;;;8.60;99.90;;;;;;5066486;28;20216;-74
2021/05/17 01:27:06;;;;;;;1999.90;999.90;;;8.60;99.90;;;;;;5058270;28;20239;-74
2021/05/17 01:29:33;;;;;;;1999.90;999.90;;;8.60;99.90;;;;;;5058140;28;20219;-74
2021/05/17 01:32:00;;;;;;;1999.90;999.90;;;8.50;99.90;;;;;;5057240;28;20197;-74
2021/05/17 01:34:27;;;;;;;1999.90;999.90;;;8.40;99.90;;;;;;5057165;28;20227;-74
2021/05/17 01:36:52;;;;;;;1999.90;999.90;;;8.40;99.90;;;;;;5056241;28;20170;-74
2021/05/17 01:39:25;;;;;;;1999.90;999.90;;;8.30;99.90;;;;;;5058257;28;20212;-74
2021/05/17 01:41:55;;;;;;;1999.90;999.90;;;8.40;99.90;;;;;;5056479;28;20715;-73
2021/05/17 01:44:25;;;;;;;1999.90;999.90;;;8.30;99.90;;;;;;5039207;28;20258;-74
2021/05/17 01:46:51;;;;;;;1999.90;999.90;;;8.30;99.90;;;;;;5054215;28;20316;-74
2021/05/17 01:49:20;;;;;;;1999.90;999.90;;;8.30;99.90;;;;;;5056405;28;20202;-74
2021/05/17 01:51:49;;;;;;;1999.90;999.90;;;8.20;99.90;;;;;;5039867;28;20200;-74
2021/05/17 01:54:17;;;;;;;1999.90;999.90;;;8.20;99.90;;;;;;5057844;28;20668;-74
2021/05/17 01:56:46;;;;;;;1999.90;999.90;;;8.20;99.90;;;;;;5040895;28;20180;-74
2021/05/17 01:59:12;;;;;;;1999.90;999.90;;;8.20;99.90;;;;;;5039778;28;20206;-74
2021/05/17 02:01:38;;;;;;;1999.90;999.90;;;8.30;99.90;;;;;;5036119;28;20185;-74
2021/05/17 02:04:04;;;;;;;1999.90;999.90;;;8.30;99.90;;;;;;5055715;28;20185;-74
2021/05/17 02:06:30;;;;;;;1999.90;999.90;;;8.20;99.90;;;;;;5057825;28;20591;-74
2021/05/17 02:08:56;;;;;;;1999.90;999.90;;;8.20;99.90;;;;;;5062159;28;20194;-75
2021/05/17 02:11:24;;;;;;;1999.90;999.90;;;8.20;99.90;;;;;;5053878;28;20200;-74
2021/05/17 02:13:53;;;;;;;1999.90;999.90;;;8.10;99.90;;;;;;5054440;28;20641;-74
2021/05/17 02:16:19;;;;;;;1999.90;999.90;;;8.10;99.90;;;;;;5055739;28;20541;-74
2021/05/17 02:18:48;;;;;;;1999.90;999.90;;;8.10;99.90;;;;;;5035921;28;20202;-75
2021/05/17 02:21:15;;;;;;;1999.90;999.90;;;8.10;99.90;;;;;;5052830;28;20174;-74
2021/05/17 02:23:42;;;;;;;1999.90;999.90;;;8.20;99.90;;;;;;5056273;28;20239;-74
2021/05/17 02:26:08;;;;;;;1999.90;999.90;;;8.20;99.90;;;;;;5057359;28;20645;-74
2021/05/17 02:28:39;;;;;;;1999.90;999.90;;;8.20;99.90;;;;;;5057446;28;20668;-74
2021/05/17 02:31:06;;;;;;;1999.90;999.90;;;8.20;99.90;;;;;;5055918;28;20181;-74
2021/05/17 02:33:32;;;;;;;1999.90;999.90;;;8.20;99.90;;;;;;5054933;28;20588;-75
2021/05/17 02:35:58;;;;;;;1999.90;999.90;;;8.20;99.90;;;;;;5035492;28;20268;-74
2021/05/17 02:38:24;;;;;;;1999.90;999.90;;;8.30;99.90;;;;;;5052641;28;20281;-74
2021/05/17 02:40:51;;;;;;;1999.90;999.90;;;8.40;99.90;;;;;;5058627;28;20552;-74
2021/05/17 02:43:21;;;;;;;1999.90;999.90;;;8.30;99.90;;;;;;5056290;28;20185;-74
2021/05/17 02:45:48;;;;;;;1999.90;999.90;;;8.20;99.90;;;;;;5058544;28;20930;-74
2021/05/17 02:48:14;;;;;;;1999.90;999.90;;;8.20;99.90;;;;;;5052803;28;20217;-74
2021/05/17 02:50:47;;;;;;;1999.90;999.90;;;8.10;99.90;;;;;;5052350;28;20243;-74
2021/05/17 02:53:37;;;;;;;1999.90;999.90;;;8.10;99.90;;;;;;5070673;28;20223;-74
2021/05/17 02:56:16;;;;;;;1999.90;999.90;;;8.00;99.90;;;;;;5071816;28;20200;-74
2021/05/17 02:58:44;;;;;;;1999.90;999.90;;;7.90;99.90;;;;;;5034313;28;20579;-74
2021/05/17 03:01:15;;;;;;;1999.90;999.90;;;7.90;99.90;;;;;;5046285;28;20258;-74
2021/05/17 03:03:52;;;;;;;1999.90;999.90;;;7.90;99.90;;;;;;5054260;28;20188;-74
2021/05/17 03:06:30;;;;;;;1999.90;999.90;;;8.00;99.90;;;;;;5053702;28;20273;-75
2021/05/17 03:09:01;;;;;;;1999.90;999.90;;;8.00;99.90;;;;;;5071499;28;20679;-75
2021/05/17 03:11:28;;;;;;;1999.90;999.90;;;7.90;99.90;;;;;;5071194;28;20188;-74
2021/05/17 03:13:57;;;;;;;1999.90;999.90;;;8.10;99.90;;;;;;5053405;28;20173;-74
2021/05/17 03:16:25;;;;;;;1999.90;999.90;;;8.10;99.90;;;;;;5071422;28;20173;-75
2021/05/17 03:18:53;;;;;;;1999.90;999.90;;;8.20;99.90;;;;;;5053362;28;20208;-75
2021/05/17 03:21:21;;;;;;;1999.90;999.90;;;8.40;99.90;;;;;;5053469;28;20656;-76
2021/05/17 03:23:48;;;;;;;1999.90;999.90;;;8.40;99.90;;;;;;5071309;28;20241;-74
2021/05/17 03:26:17;;;;;;;1999.90;999.90;;;8.40;99.90;;;;;;5070762;28;20208;-75
2021/05/17 03:28:42;;;;;;;1999.90;999.90;;;8.40;99.90;;;;;;5052930;28;20328;-74
2021/05/17 03:31:08;;;;;;;1999.90;999.90;;;8.50;99.90;;;;;;5062464;28;20260;-74
2021/05/17 03:33:34;;;;;;;1999.90;999.90;;;8.50;99.90;;;;;;5054371;28;20220;-75
2021/05/17 03:36:00;;;;;;;1999.90;999.90;;;8.50;99.90;;;;;;5071488;28;20181;-75
2021/05/17 03:38:25;;;;;;;1999.90;999.90;;;8.50;99.90;;;;;;5052985;28;20211;-74
2021/05/17 03:40:51;;;;;;;1999.90;999.90;;;8.50;99.90;;;;;;5070961;28;20949;-74
2021/05/17 03:43:17;;;;;;;1999.90;999.90;;;8.60;99.90;;;;;;5070943;28;20186;-74
2021/05/17 03:45:43;;;;;;;1999.90;999.90;;;8.60;99.90;;;;;;5071003;28;20250;-75
2021/05/17 03:48:09;;;;;;;1999.90;999.90;;;8.60;99.90;;;;;;5071817;28;20279;-74
2021/05/17 03:50:34;;;;;;;1999.90;999.90;;;8.60;99.90;;;;;;5053361;28;20180;-74
2021/05/17 03:53:00;;;;;;;1999.90;999.90;;;8.50;99.90;;;;;;5070821;28;20229;-74
2021/05/17 03:55:25;;;;;;;1999.90;999.90;;;8.60;99.90;;;;;;5070909;28;20205;-74
2021/05/17 03:57:55;;;;;;;1999.90;999.90;;;8.60;99.90;;;;;;5070777;28;20185;-74
2021/05/17 04:00:20;;;;;;;1999.90;999.90;;;8.50;99.90;;;;;;5068705;28;20182;-74
2021/05/17 04:02:46;;;;;;;1999.90;999.90;;;8.40;99.90;;;;;;5062842;28;20624;-74
2021/05/17 04:13:25;;;;;;;1999.90;999.90;;;8.50;99.90;;;;;;5031221;28;20221;-74
2021/05/17 04:15:53;;;;;;;1999.90;999.90;;;8.50;99.90;;;;;;5064745;28;20197;-74
2021/05/17 04:18:20;;;;;;;1999.90;999.90;;;8.60;99.90;;;;;;5082423;22;20700;-72
2021/05/17 04:20:47;;;;;;;1999.90;999.90;;;8.40;99.90;;;;;;5067521;28;20591;-73
2021/05/17 04:23:14;;;;;;;1999.90;999.90;;;8.40;99.90;;;;;;5072693;28;20181;-75
2021/05/17 04:25:40;;;;;;;1999.90;999.90;;;8.50;99.90;;;;;;5058302;28;20554;-75
2021/05/17 04:28:05;;;;;;;1999.90;999.90;;;8.40;99.90;;;;;;5054290;28;20225;-74
2021/05/17 04:30:32;;;;;;;1999.90;999.90;;;8.60;99.90;;;;;;5055135;28;20664;-75
2021/05/17 04:32:58;;;;;;;1999.90;999.90;;;8.70;99.90;;;;;;5071679;28;20272;-74
2021/05/17 04:35:24;;;;;;;1999.90;999.90;;;8.70;99.90;;;;;;5068855;28;20181;-75
2021/05/17 04:37:49;;;;;;;1999.90;999.90;;;8.80;99.90;;;;;;5069013;28;20213;-75
2021/05/17 04:40:15;;;;;;;1999.90;999.90;;;8.80;99.90;;;;;;5056881;28;20170;-75
2021/05/17 04:42:42;;;;;;;1999.90;999.90;;;8.80;99.90;;;;;;5068352;28;20177;-75
2021/05/17 04:45:08;;;;;;;1999.90;999.90;;;8.90;99.90;;;;;;5075381;28;20210;-73
2021/05/17 04:47:34;;;;;;;1999.90;999.90;;;8.90;99.90;;;;;;5071784;28;20578;-74
2021/05/17 04:50:00;;;;;;;1999.90;999.90;;;8.90;99.90;;;;;;5074922;28;20177;-73
2021/05/17 04:52:26;;;;;;;1999.90;999.90;;;8.90;99.90;;;;;;5076516;28;20655;-73
2021/05/17 04:54:52;;;;;;;1999.90;999.90;;;8.90;99.90;;;;;;5076459;28;20182;-73
2021/05/17 04:57:17;;;;;;;1999.90;999.90;;;8.90;99.90;;;;;;5065779;28;20174;-75
2021/05/17 04:59:43;;;;;;;1999.90;999.90;;;9.00;99.90;;;;;;5066119;28;20174;-73
2021/05/17 05:02:09;;;;;;;1999.90;999.90;;;9.00;99.90;;;;;;5076117;28;20186;-74
2021/05/17 05:04:34;;;;;;;1999.90;999.90;;;9.00;99.90;;;;;;5075811;28;20180;-74
2021/05/17 05:07:00;;;;;;;1999.90;999.90;;;9.00;99.90;;;;;;5075865;28;20180;-73
2021/05/17 05:09:26;;;;;;;1999.90;999.90;;;9.10;99.90;;;;;;5074930;28;20242;-73
2021/05/17 05:11:51;;;;;;;1999.90;999.90;;;8.80;99.90;;;;;;5074931;28;20700;-73
2021/05/17 05:14:18;;;;;;;1999.90;999.90;;;8.70;99.90;;;;;;5076086;28;20180;-74
2021/05/17 05:16:43;;;;;;;1999.90;999.90;;;8.70;99.90;;;;;;5070682;28;20653;-74
2021/05/17 05:19:09;;;;;;;1999.90;999.90;;;8.60;99.90;;;;;;5069097;28;20212;-74
2021/05/17 05:21:35;;;;;;;1999.90;999.90;;;8.60;99.90;;;;;;5075944;28;20252;-75
2021/05/17 05:24:01;;;;;;;1999.90;999.90;;;8.60;99.90;;;;;;5074643;28;20260;-73
2021/05/17 05:31:48;;;;;;;1999.90;999.90;;;8.60;99.90;;;;;;5075710;28;20172;-73
2021/05/17 05:34:14;;;;;;;1999.90;999.90;;;8.60;99.90;;;;;;5074353;28;20545;-74
2021/05/17 05:36:40;;;;;;;1999.90;999.90;;;8.70;99.90;;;;;;5073121;28;20166;-73
2021/05/17 05:39:05;;;;;;;1999.90;999.90;;;8.60;99.90;;;;;;5070455;28;20259;-75
2021/05/17 05:41:32;;;;;;;1999.90;999.90;;;8.60;99.90;;;;;;5072865;28;20186;-73
2021/05/17 05:43:58;;;;;;;1999.90;999.90;;;8.60;99.90;;;;;;5075419;28;20537;-72
2021/05/17 05:46:24;;;;;;;1999.90;999.90;;;8.60;99.90;;;;;;5075498;28;20243;-73
2021/05/17 05:48:49;;;;;;;1999.90;999.90;;;8.70;99.90;;;;;;5075312;28;20194;-73
2021/05/17 05:51:22;;;;;;;1999.90;999.90;;;8.70;99.90;;;;;;5073596;28;20302;-73
2021/05/17 05:53:49;;;;;;;1999.90;999.90;;;8.70;99.90;;;;;;5074630;28;20177;-73
2021/05/17 05:56:15;;;;;;;1999.90;999.90;;;8.60;99.90;;;;;;5075208;28;20254;-73
2021/05/17 05:58:45;;;;;;;1999.90;999.90;;;8.60;99.90;;;;;;5075208;28;20698;-74
2021/05/17 06:01:11;;;;;;;1999.90;999.90;;;8.50;99.90;;;;;;5075294;28;20173;-73
2021/05/17 06:03:37;;;;;;;1999.90;999.90;;;8.60;99.90;;;;;;5073746;28;20189;-72
2021/05/17 06:06:03;;;;;;;1999.90;999.90;;;8.60;99.90;;;;;;5074040;28;20188;-73
2021/05/17 06:08:29;;;;;;;1999.90;999.90;;;8.70;99.90;;;;;;5073638;28;20258;-74
2021/05/17 06:10:55;;;;;;;1999.90;999.90;;;8.70;99.90;;;;;;5075045;28;20208;-73
2021/05/17 06:13:21;;;;;;;1999.90;999.90;;;8.70;99.90;;;;;;5074967;28;20291;-73
2021/05/17 06:15:47;;;;;;;1999.90;999.90;;;8.70;99.90;;;;;;5074938;28;20644;-73
2021/05/17 06:18:14;;;;;;;1999.90;999.90;;;8.70;99.90;;;;;;5073476;28;20211;-73
2021/05/17 06:20:41;;;;;;;1999.90;999.90;;;8.80;99.90;;;;;;5074845;28;20178;-73
2021/05/17 06:23:12;;;;;;;1999.90;999.90;;;8.90;99.90;;;;;;5074392;28;20186;-74
2021/05/17 06:25:38;;;;;;;1999.90;999.90;;;8.80;99.90;;;;;;5073181;28;20181;-75
2021/05/17 06:28:04;;;;;;;1999.90;999.90;;;8.80;99.90;;;;;;5063666;28;20567;-75
2021/05/17 06:30:31;;;;;;;1999.90;999.90;;;8.70;99.90;;;;;;5074936;28;20290;-74
2021/05/17 06:32:57;;;;;;;1999.90;999.90;;;8.80;99.90;;;;;;5065581;28;20196;-74
2021/05/17 06:35:26;;;;;;;1999.90;999.90;;;8.80;99.90;;;;;;5075239;28;20691;-82
2021/05/17 06:37:53;;;;;;;1999.90;999.90;;;8.90;99.90;;;;;;5075408;28;20200;-82
2021/05/17 06:40:19;;;;;;;1999.90;999.90;;;8.90;99.90;;;;;;5075522;28;20176;-82
2021/05/17 06:42:45;;;;;;;1999.90;999.90;;;9.00;99.90;;;;;;5076298;28;20183;-82
2021/05/17 06:45:14;;;;;;;1999.90;999.90;;;9.10;99.90;;;;;;5075417;28;20169;-82
2021/05/17 06:47:42;;;;;;;1999.90;999.90;;;8.90;99.90;;;;;;5076786;28;20591;-83
2021/05/17 06:50:08;;;;;;;1999.90;999.90;;;9.00;99.90;;;;;;5077531;28;20169;-82
2021/05/17 06:52:34;;;;;;;1999.90;999.90;;;9.00;99.90;;;;;;5075124;28;20201;-82
2021/05/17 06:55:03;;;;;;;1999.90;999.90;;;9.10;99.90;;;;;;5075416;28;20174;-81
2021/05/17 06:57:43;;;;;;;1999.90;999.90;;;9.00;99.90;;;;;;5076768;28;20213;-81
2021/05/17 07:00:12;;;;;;;1999.90;999.90;;;9.00;99.90;;;;;;5075211;28;20187;-81
2021/05/17 07:02:41;;;;;;;1999.90;999.90;;;8.90;99.90;;;;;;5075466;28;20209;-81
2021/05/17 07:05:07;;;;;;;1999.90;999.90;;;8.90;99.90;;;;;;5075073;28;20196;-82
2021/05/17 07:12:50;;;;;;;1999.90;999.90;;;9.10;99.90;;;;;;5076745;28;20222;-81
2021/05/17 07:15:16;;;;;;;1999.90;999.90;;;9.00;99.90;;;;;;5075626;28;20173;-81
2021/05/17 07:17:44;;;;;;;1999.90;999.90;;;9.10;99.90;;;;;;5074060;28;20284;-81
2021/05/17 07:20:11;;;;;;;1999.90;999.90;;;9.20;99.90;;;;;;5075103;28;20259;-82
2021/05/17 07:25:21;;;;;;;1999.90;999.90;;;9.10;99.90;;;;;;5071867;28;20616;-81
2021/05/17 07:27:47;;;;;;;1999.90;999.90;;;9.10;99.90;;;;;;5074479;28;20201;-80
2021/05/17 07:30:13;;;;;;;1999.90;999.90;;;9.10;99.90;;;;;;5073932;28;20671;-81
2021/05/17 07:32:39;;;;;;;1999.90;999.90;;;9.30;99.90;;;;;;5074194;28;20196;-82
2021/05/17 07:35:05;;;;;;;1999.90;999.90;;;9.20;99.90;;;;;;5075319;28;20180;-82
2021/05/17 07:37:32;;;;;;;1999.90;999.90;;;9.20;99.90;;;;;;5074902;28;20212;-81
2021/05/17 07:39:58;;;;;;;1999.90;999.90;;;9.20;99.90;;;;;;5073911;28;20173;-82
2021/05/17 07:42:24;;;;;;;1999.90;999.90;;;9.20;99.90;;;;;;5074681;28;20183;-82
2021/05/17 07:44:49;;;;;;;1999.90;999.90;;;9.30;99.90;;;;;;5075676;28;20181;-81
2021/05/17 07:47:15;;;;;;;1999.90;999.90;;;9.20;99.90;;;;;;5075156;28;20183;-81
2021/05/17 07:49:43;;;;;;;1999.90;999.90;;;9.30;99.90;;;;;;5075573;28;20238;-81
2021/05/17 07:52:09;;;;;;;1999.90;999.90;;;9.40;99.90;;;;;;5075607;28;20208;-82
2021/05/17 07:54:36;;;;;;;1999.90;999.90;;;9.50;99.90;;;;;;5075590;28;20202;-82
2021/05/17 07:57:04;;;;;;;1999.90;999.90;;;9.40;99.90;;;;;;5073961;28;20595;-82
2021/05/17 07:59:31;;;;;;;1999.90;999.90;;;9.40;99.90;;;;;;5075602;28;20252;-82
2021/05/17 08:01:56;;;;;;;1999.90;999.90;;;9.50;99.90;;;;;;5075191;28;20192;-82
2021/05/17 08:04:23;;;;;;;1999.90;999.90;;;9.40;99.90;;;;;;5075636;28;20238;-82
2021/05/17 08:06:51;;;;;;;1999.90;999.90;;;9.30;99.90;;;;;;5075629;28;20268;-82
2021/05/17 08:09:17;;;;;;;1999.90;999.90;;;9.30;99.90;;;;;;5074945;28;20634;-82
2021/05/17 08:11:44;;;;;;;1999.90;999.90;;;9.30;99.90;;;;;;5075151;28;20608;-82
2021/05/17 08:14:09;;;;;;;1999.90;999.90;;;9.40;99.90;;;;;;5074646;28;20180;-82
2021/05/17 08:16:35;;;;;;;1999.90;999.90;;;9.30;99.90;;;;;;5074462;28;20189;-82
2021/05/17 08:19:01;;;;;;;1999.90;999.90;;;9.40;99.90;;;;;;5075189;28;20745;-83
2021/05/17 08:21:27;;;;;;;1999.90;999.90;;;9.50;99.90;;;;;;5074687;28;20174;-83
2021/05/17 08:23:55;;;;;;;1999.90;999.90;;;9.50;99.90;;;;;;5075850;28;20177;-83
2021/05/17 08:26:21;;;;;;;1999.90;999.90;;;9.50;99.90;;;;;;5064743;28;20582;-82
2021/05/17 08:28:47;;;;;;;1999.90;999.90;;;9.60;99.90;;;;;;5075529;28;20197;-83
2021/05/17 08:31:16;;;;;;;1999.90;999.90;;;9.60;99.90;;;;;;5075066;28;20199;-83
2021/05/17 08:33:42;;;;;;;1999.90;999.90;;;9.60;99.90;;;;;;5076142;28;20193;-83
2021/05/17 08:36:09;;;;;;;1999.90;999.90;;;9.70;99.90;;;;;;5071397;28;20184;-83
2021/05/17 08:38:36;;;;;;;1999.90;999.90;;;9.80;99.90;;;;;;5075232;28;20205;-83
2021/05/17 08:41:02;;;;;;;1999.90;999.90;;;10.00;99.90;;;;;;5074963;28;20186;-83
2021/05/17 08:43:29;;;;;;;1999.90;999.90;;;10.00;99.90;;;;;;5074423;28;20178;-82
2021/05/17 08:45:55;;;;;;;1999.90;999.90;;;10.10;99.90;;;;;;5076322;28;20186;-84
2021/05/17 08:48:21;;;;;;;1999.90;999.90;;;10.10;99.90;;;;;;5075420;28;20205;-84
2021/05/17 08:50:47;;;;;;;1999.90;999.90;;;10.00;99.90;;;;;;5070378;28;20196;-83
2021/05/17 08:53:13;;;;;;;1999.90;999.90;;;10.10;99.90;;;;;;5061164;28;20201;-83
2021/05/17 08:55:39;;;;;;;1999.90;999.90;;;10.20;99.90;;;;;;5066376;28;20248;-85
2021/05/17 08:58:05;;;;;;;1999.90;999.90;;;10.10;99.90;;;;;;5075924;28;20290;-83
2021/05/17 09:00:31;;;;;;;1999.90;999.90;;;10.10;99.90;;;;;;5072127;28;20235;-82
2021/05/17 09:02:57;;;;;;;1999.90;999.90;;;10.20;99.90;;;;;;5063765;28;20178;-82
2021/05/17 09:05:25;;;;;;;1999.90;999.90;;;10.40;99.90;;;;;;5074787;28;20181;-82
2021/05/17 09:07:58;;;;;;;1999.90;999.90;;;10.30;99.90;;;;;;5075094;28;20248;-82
2021/05/17 09:16:11;;;;;;;1999.90;999.90;;;10.40;99.90;;;;;;5859034;22;21154;-83
2021/05/17 09:18:37;;;;;;;1999.90;999.90;;;10.30;99.90;;;;;;5070790;28;20218;-83
2021/05/17 09:21:05;;;;;;;1999.90;999.90;;;10.30;99.90;;;;;;5091566;28;20642;-82
2021/05/17 09:23:33;;;;;;;1999.90;999.90;;;10.40;99.90;;;;;;5088739;28;20178;-83
2021/05/17 09:26:07;;;;;;;1999.90;999.90;;;10.50;99.90;;;;;;5077214;28;20185;-84
2021/05/17 09:28:40;;;;;;;1999.90;999.90;;;10.70;99.90;;;;;;5094337;28;20183;-84
2021/05/17 09:31:11;;;;;;;1999.90;999.90;;;10.80;99.90;;;;;;5110323;22;20231;-81
2021/05/17 09:33:44;;;;;;;1999.90;999.90;;;10.90;99.90;;;;;;5057659;28;20284;-83
2021/05/17 09:36:33;;;;;;;1999.90;999.90;;;11.10;99.90;;;;;;5067109;28;20225;-85
2021/05/17 09:39:09;;;;;;;1999.90;999.90;;;11.30;99.90;;;;;;5057391;28;20193;-81
2021/05/17 09:41:44;;;;;;;1999.90;999.90;;;11.30;99.90;;;;;;5067641;28;20201;-80
2021/05/17 09:44:12;;;;;;;1999.90;999.90;;;11.30;99.90;;;;;;5077769;28;20673;-82
2021/05/17 09:47:05;;;;;;;1999.90;999.90;;;11.40;99.90;;;;;;5077133;28;20169;-81
2021/05/17 09:49:35;;;;;;;1999.90;999.90;;;11.50;99.90;;;;;;5060511;28;20173;-81
2021/05/17 09:52:13;;;;;;;1999.90;999.90;;;11.50;99.90;;;;;;5071734;28;20208;-82
2021/05/17 09:54:53;;;;;;;1999.90;999.90;;;11.60;99.90;;;;;;5065627;28;20261;-81
2021/05/17 09:57:33;;;;;;;1999.90;999.90;;;11.60;99.90;;;;;;5059485;28;20169;-81
2021/05/17 10:00:06;;;;;;;1999.90;999.90;;;11.50;99.90;;;;;;5076444;28;20178;-82
2021/05/17 10:02:33;;;;;;;1999.90;999.90;;;11.40;99.90;;;;;;5053929;28;20261;-82
2021/05/17 10:05:28;;;;;;;1999.90;999.90;;;11.30;99.90;;;;;;5075510;28;20170;-84
2021/05/17 10:08:09;;;;;;;1999.90;999.90;;;11.20;99.90;;;;;;5078775;28;20193;-85
2021/05/17 10:10:35;;;;;;;1999.90;999.90;;;11.10;99.90;;;;;;5061213;28;20676;-82
2021/05/17 10:13:03;;;;;;;1999.90;999.90;;;11.00;99.90;;;;;;5080342;28;20185;-84
2021/05/17 10:15:31;;;;;;;1999.90;999.90;;;10.90;99.90;;;;;;5084456;28;20252;-84
2021/05/17 10:18:00;;;;;;;1999.90;999.90;;;10.90;99.90;;;;;;5082537;28;20169;-84
2021/05/17 10:20:28;;;;;;;1999.90;999.90;;;10.90;99.90;;;;;;5078616;28;20190;-85
2021/05/17 10:22:56;;;;;;;1999.90;999.90;;;10.70;99.90;;;;;;5079422;28;20174;-84
2021/05/17 10:25:30;;;;;;;1999.90;999.90;;;10.70;99.90;;;;;;5078764;28;20504;-84
2021/05/17 10:28:15;;;;;;;1999.90;999.90;;;10.80;99.90;;;;;;5060223;28;20212;-84
2021/05/17 10:30:41;;;;;;;1999.90;999.90;;;10.70;99.90;;;;;;5078404;28;20209;-84
2021/05/17 10:33:09;;;;;;;1999.90;999.90;;;10.60;99.90;;;;;;5076748;28;20227;-84
2021/05/17 10:35:55;;;;;;;1999.90;999.90;;;10.60;99.90;;;;;;5059197;28;20232;-83
2021/05/17 10:38:29;;;;;;;1999.90;999.90;;;10.70;99.90;;;;;;5059076;28;20268;-83
2021/05/17 10:41:13;;;;;;;1999.90;999.90;;;10.90;99.90;;;;;;5077039;28;20327;-84
2021/05/17 10:46:37;;;;;;;1999.90;999.90;;;11.50;99.90;;;;;;5076897;28;20180;-83
2021/05/17 10:49:21;;;;;;;1999.90;999.90;;;11.50;99.90;;;;;;5077315;28;20200;-85
2021/05/17 10:51:49;;;;;;;1999.90;999.90;;;11.70;99.90;;;;;;5076733;28;20195;-84
2021/05/17 10:54:26;;;;;;;1999.90;999.90;;;11.80;99.90;;;;;;5059678;28;20182;-83
2021/05/17 10:57:11;;;;;;;1999.90;999.90;;;12.00;99.90;;;;;;5056473;28;20207;-84
2021/05/17 11:02:38;;;;;;;1999.90;999.90;;;12.00;99.90;;;;;;5077446;28;20251;-85
2021/05/17 11:05:14;;;;;;;1999.90;999.90;;;12.10;99.90;;;;;;5074531;28;20177;-84
2021/05/17 11:07:53;;;;;;;1999.90;999.90;;;12.00;99.90;;;;;;5059851;28;20190;-83
2021/05/17 11:10:23;;;;;;;1999.90;999.90;;;12.00;99.90;;;;;;5074961;28;20201;-84
2021/05/17 11:12:52;;;;;;;1999.90;999.90;;;11.90;99.90;;;;;;5058946;28;20221;-83
2021/05/17 11:15:20;;;;;;;1999.90;999.90;;;11.90;99.90;;;;;;5077572;28;20177;-83
2021/05/17 11:17:54;;;;;;;1999.90;999.90;;;11.80;99.90;;;;;;5077266;28;20194;-84
2021/05/17 11:20:41;;;;;;;1999.90;999.90;;;11.70;99.90;;;;;;5076767;28;20405;-83
2021/05/17 11:23:09;;;;;;;1999.90;999.90;;;11.60;99.90;;;;;;5073115;28;20691;-84
2021/05/17 11:28:34;;;;;;;1999.90;999.90;;;11.40;99.90;;;;;;5061885;28;20176;-77
2021/05/17 11:31:28;;;;;;;1999.90;999.90;;;11.40;99.90;;;;;;5062292;28;20222;-77
2021/05/17 11:34:04;;;;;;;1999.90;999.90;;;11.50;99.90;;;;;;5060085;28;20284;-73
2021/05/17 11:36:45;;;;;;;1999.90;999.90;;;11.70;99.90;;;;;;5062651;28;20176;-75
2021/05/17 11:39:19;;;;;;;1999.90;999.90;;;11.70;99.90;;;;;;5068104;28;20183;-76
2021/05/17 11:41:55;;;;;;;1999.90;999.90;;;11.80;99.90;;;;;;5064957;28;20321;-76
2021/05/17 11:44:55;;;;;;;1999.90;999.90;;;11.70;99.90;;;;;;5056740;28;20666;-76
2021/05/17 11:47:24;;;;;;;1999.90;999.90;;;11.70;99.90;;;;;;5064038;28;20172;-73
2021/05/17 11:49:51;;;;;;;1999.90;999.90;;;11.90;99.90;;;;;;5058687;28;20616;-73
2021/05/17 11:52:25;;;;;;;1999.90;999.90;;;12.10;99.90;;;;;;5064940;28;20195;-84
2021/05/17 11:55:00;;;;;;;1999.90;999.90;;;12.20;99.90;;;;;;5065989;28;20177;-80
2021/05/17 11:57:40;;;;;;;1999.90;999.90;;;12.40;99.90;;;;;;5031312;28;20177;-80
2021/05/17 12:00:12;;;;;;;1999.90;999.90;;;12.50;99.90;;;;;;5067564;28;20166;-83
2021/05/17 12:02:51;;;;;;;1999.90;999.90;;;12.70;99.90;;;;;;5068977;28;20267;-81
2021/05/17 12:05:17;;;;;;;1999.90;999.90;;;12.80;99.90;;;;;;5074532;28;20173;-80
2021/05/17 12:07:48;;;;;;;1999.90;999.90;;;12.90;99.90;;;;;;5059965;28;20184;-80
2021/05/17 12:10:17;;;;;;;1999.90;999.90;;;13.20;99.90;;;;;;5054243;28;20198;-83
2021/05/17 12:12:43;;;;;;;1999.90;999.90;;;13.40;99.90;;;;;;5052047;28;20206;-84
2021/05/17 12:15:13;;;;;;;1999.90;999.90;;;13.00;99.90;;;;;;5059530;28;20182;-80
2021/05/17 12:17:50;;;;;;;1999.90;999.90;;;12.90;99.90;;;;;;5063114;28;20206;-80
2021/05/17 12:20:19;;;;;;;1999.90;999.90;;;13.00;99.90;;;;;;5061040;28;20238;-80
2021/05/17 12:22:53;;;;;;;1999.90;999.90;;;13.00;99.90;;;;;;5053355;28;20543;-79
2021/05/17 12:25:21;;;;;;;1999.90;999.90;;;13.00;99.90;;;;;;5081249;28;20247;-81
2021/05/17 12:27:48;;;;;;;1999.90;999.90;;;13.10;99.90;;;;;;5072662;28;20194;-79
2021/05/17 12:30:22;;;;;;;1999.90;999.90;;;13.20;99.90;;;;;;5065057;28;20263;-81
2021/05/17 12:32:57;;;;;;;1999.90;999.90;;;13.30;99.90;;;;;;5081446;28;20197;-79
2021/05/17 12:35:34;;;;;;;1999.90;999.90;;;13.10;99.90;;;;;;5085263;28;20267;-81
2021/05/17 12:38:04;;;;;;;1999.90;999.90;;;13.10;99.90;;;;;;5055164;28;20185;-81
2021/05/17 12:40:35;;;;;;;1999.90;999.90;;;13.00;99.90;;;;;;5051212;28;20195;-82
2021/05/17 12:43:11;;;;;;;1999.90;999.90;;;13.10;99.90;;;;;;5070820;28;20186;-80
2021/05/17 12:45:42;;;;;;;1999.90;999.90;;;13.00;99.90;;;;;;5071628;28;20181;-81
2021/05/17 12:48:46;;;;;;;1999.90;999.90;;;13.20;99.90;;;;;;5046195;28;20660;-80
2021/05/17 12:51:31;;;;;;;1999.90;999.90;;;13.40;99.90;;;;;;5039421;28;20217;-78